Latest Coastal Weather Observations for Cape Nelson

IDS60701

Issued at 10:31 pm CDT Tuesday 28 March 2017 (issued every 10 minutes, with the page automatically refreshed every 10 minutes)

About coastal observations | Map of coastal stations | Coastal observations for SA | Marine services | Other Formats
Station Details ID: 090184 Name: CAPE NELSON LIGHTHOUSE Lat: -38.43 Lon: 141.54 Height: 45.4 m
Data from the previous 72 hours. | See also: Recent months at Cape Nelson
Date/Time
CDT
Temp
°C
Wind Pressure Rain since
9am
mm
Weather Cloud Vis
km
Sea
Height
m
Swell
Dir  Spd
kts
Gust
kts
hPa Trend Height
m
Period
s
Dir
28/10:30pm 16.7 NW 12 16 1010.8 - 0.0 - - - - - - -
28/10:00pm 16.3 NNW 10 15 1010.9 - 0.0 - - - - - - -
28/09:30pm 16.5 NW 12 16 1011.0 - 0.0 - - - - - - -
28/09:00pm 16.6 NW 14 18 1011.1 - 0.0 - - - - - - -
28/08:30pm 16.5 NW 11 17 1011.0 - 0.0 - - - - - - -
28/08:00pm 16.8 NW 12 16 1010.9 - 0.0 - - - - - - -
28/07:30pm 17.4 NW 16 22 1010.8 - 0.0 - - - - - - -
28/07:00pm 17.3 NW 14 20 1010.9 - 0.0 - - - - - - -
28/06:30pm 17.2 WNW 17 22 1010.9 - 0.0 - - - - - - -
28/06:00pm 17.5 WNW 16 26 1010.9 - 0.0 - - - - - - -
28/05:57pm 17.5 WNW 16 26 1010.8 - 0.0 - - - - - - -
28/05:30pm 17.8 WNW 15 19 1010.8 - 0.0 - - - - - - -
28/05:00pm 18.0 WNW 13 17 1010.9 - 0.0 - - - - - - -
28/04:30pm 18.9 WNW 15 21 1011.0 - 0.0 - - - - - - -
28/04:00pm 18.6 WNW 17 23 1011.1 - 0.0 - - - - - - -
28/03:30pm 18.3 WNW 15 20 1011.3 - 0.0 - - - - - - -
28/03:00pm 18.3 WNW 14 21 1011.5 - 0.0 - - - - - - -
28/02:30pm 19.3 WNW 17 23 1011.6 - 0.0 - - - - - - -
28/02:00pm 19.5 WNW 18 25 1012.1 - 0.0 - - - - - - -
28/01:30pm 19.8 WNW 17 23 1012.2 - 0.0 - - - - - - -
28/01:00pm 19.6 WNW 16 22 1012.4 - 0.0 - - - - - - -
28/12:30pm 19.0 WNW 16 23 1012.8 - 0.0 - - - - - - -
28/12:00pm 19.9 NW 15 20 1013.0 - 0.0 - - - - - - -
28/11:30am 18.7 NW 17 24 1013.1 - 0.0 - - - - - - -
28/11:00am 17.9 NW 15 20 1013.4 - 0.0 - - - - - - -
28/10:30am 17.8 NW 15 22 1013.4 - 0.0 - - - - - - -
28/10:00am 16.7 NW 15 21 1013.4 - 0.0 - - - - - - -
28/09:30am 17.2 NW 15 20 1013.4 - 0.0 - - - - - - -
28/09:00am 15.4 NW 14 19 1013.2 - 0.0 - - - - - - -
28/08:30am 15.0 NW 14 19 1013.1 - 1.2 - - - - - - -
28/08:00am 14.8 NW 15 21 1012.9 - 1.2 - - - - - - -
28/07:30am 14.1 NW 14 19 1012.7 - 1.2 - - - - - - -
28/07:00am 14.1 NW 14 21 1012.5 - 1.2 - - - - - - -
28/06:30am 14.4 NW 12 17 1012.4 - 1.2 - - - - - - -
28/06:00am 14.2 NW 13 17 1012.3 - 1.2 - - - - - - -
28/05:30am 14.1 NW 13 18 1012.3 - 1.2 - - - - - - -
28/05:00am 13.9 NW 14 21 1012.2 - 1.2 - - - - - - -
28/04:30am 14.1 NW 12 16 1012.1 - 1.2 - - - - - - -
28/04:00am 13.9 NW 12 17 1012.0 - 1.2 - - - - - - -
28/03:30am 14.5 WNW 14 20 1012.3 - 1.2 - - - - - - -
28/03:00am 14.3 NW 13 17 1012.3 - 1.2 - - - - - - -
28/02:30am 14.7 NW 14 21 1012.4 - 1.2 - - - - - - -
28/02:00am 14.4 NW 12 17 1012.4 - 1.2 - - - - - - -
28/01:30am 14.3 NW 12 17 1012.6 - 1.2 - - - - - - -
28/01:00am 14.5 NW 14 18 1012.7 - 1.2 - - - - - - -
28/12:30am 14.5 NW 13 18 1012.6 - 1.2 - - - - - - -
28/12:00am 15.0 NW 14 20 1012.6 - 1.2 - - - - - - -
 
Date/Time
CDT
Temp
°C
Wind Pressure Rain since
9am
mm
Weather Cloud Vis
km
Sea
Height
m
Swell
Dir  Spd
kts
Gust
kts
hPa Trend Height
m
Period
s
Dir
27/11:30pm 14.8 NW 11 16 1012.6 - 1.2 - - - - - - -
27/11:00pm 14.9 NW 12 17 1012.7 - 1.2 - - - - - - -
27/10:30pm 15.0 NW 12 16 1012.8 - 1.2 - - - - - - -
27/10:00pm 15.2 NW 10 14 1012.7 - 1.2 - - - - - - -
27/09:30pm 16.1 WNW 12 16 1012.4 - 1.2 - - - - - - -
27/09:00pm 16.5 WNW 13 23 1012.5 - 1.2 - - - - - - -
27/08:30pm 16.7 WNW 15 22 1012.1 - 1.2 - - - - - - -
27/08:00pm 16.7 WNW 16 23 1011.7 - 1.2 - - - - - - -
27/07:30pm 16.7 WNW 17 24 1011.4 - 1.2 - - - - - - -
27/07:05pm 16.5 WNW 16 27 1010.9 - 1.2 - - - - - - -
27/07:00pm 16.8 WNW 17 24 1010.9 - 1.2 - - - - - - -
27/06:30pm 16.9 WNW 17 27 1010.5 - 1.2 - - - - - - -
27/06:00pm 17.3 WNW 17 23 1010.3 - 1.2 - - - - - - -
27/05:30pm 18.0 WNW 18 24 1010.0 - 1.2 - - - - - - -
27/05:00pm 18.5 WNW 18 25 1010.0 - 1.2 - - - - - - -
27/04:30pm 18.8 WNW 20 28 1010.1 - 1.2 - - - - - - -
27/04:00pm 18.8 WNW 20 27 1009.9 - 1.2 - - - - - - -
27/03:30pm 19.0 WNW 21 29 1009.6 - 1.2 - - - - - - -
27/03:00pm 19.1 WNW 22 30 1009.4 - 1.2 - - - - - - -
27/02:30pm 19.0 WNW 22 29 1009.2 - 1.2 - - - - - - -
27/02:00pm 19.2 NW 21 31 1009.2 - 1.2 - - - - - - -
27/01:44pm 18.8 NW 19 29 1009.3 - 1.2 - - - - - - -
27/01:30pm 18.5 NW 18 26 1009.3 - 1.2 - - - - - - -
27/01:00pm 16.3 NW 19 27 1009.2 - 1.2 - - - - - - -
27/12:30pm 15.7 NW 16 23 1008.9 - 1.2 - - - - - - -
27/12:00pm 15.0 NW 15 22 1008.3 - 1.2 - - - - - - -
27/11:30am 14.8 WNW 17 24 1008.7 - 1.0 Rain - - - - - -
27/11:00am 15.1 WNW 17 26 1009.0 - 0.4 - - - - - - -
27/10:30am 15.9 W 19 29 1008.1 - 0.0 - - - - - - -
27/10:00am 16.8 W 21 31 1007.4 - 0.0 - - - - - - -
27/09:30am 17.2 WNW 20 30 1005.8 - 0.0 - - - - - - -
27/09:00am 18.0 WNW 20 27 1004.9 - 0.0 - - - - - - -
27/08:30am 18.2 WNW 21 28 1004.0 - 0.0 - - - - - - -
27/08:00am 18.7 NW 19 30 1003.5 - 0.0 - - - - - - -
27/07:30am 19.9 NW 20 27 1002.3 - 0.0 - - - - - - -
27/07:00am 21.0 WNW 19 27 1001.3 - 0.0 - - - - - - -
27/06:51am 24.4 NW 17 27 1000.9 - 0.0 - - - - - - -
27/06:49am 27.4 NW 16 24 1000.9 - 0.0 - - - - - - -
27/06:30am 28.0 N 22 32 999.8 - 0.0 - - - - - - -
27/06:00am 27.6 N 22 32 998.6 - 0.0 - - - - - - -
27/05:30am 26.7 N 23 35 998.1 - 0.0 - - - - - - -
27/05:00am 26.8 N 22 34 998.7 - 0.0 - - - - - - -
27/04:31am 26.5 N 19 29 999.3 - 0.0 - - - - - - -
27/04:30am 26.5 N 20 29 999.3 - 0.0 - - - - - - -
27/04:00am 26.3 N 21 31 1000.0 - 0.0 - - - - - - -
27/03:36am 26.0 N 21 33 1000.3 - 0.0 - - - - - - -
27/03:30am 26.0 N 21 29 1000.4 - 0.0 - - - - - - -
27/03:14am 25.5 N 18 30 1001.0 - 0.0 - - - - - - -
27/03:00am 25.3 N 16 24 1001.6 - 0.0 - - - - - - -
27/02:40am 24.9 N 19 29 1001.7 - 0.0 - - - - - - -
27/02:30am 24.8 N 20 29 1001.6 - 0.0 - - - - - - -
27/02:26am 24.6 N 19 29 1001.9 - 0.0 - - - - - - -
27/02:00am 24.5 N 18 26 1002.7 - 0.0 - - - - - - -
27/01:31am 24.4 N 17 27 1003.4 - 0.0 - - - - - - -
27/01:30am 24.4 N 18 27 1003.4 - 0.0 - - - - - - -
27/01:27am 24.2 N 16 27 1003.5 - 0.0 - - - - - - -
27/01:00am 23.9 N 17 25 1003.9 - 0.0 - - - - - - -
27/12:30am 23.9 N 18 25 1004.5 - 0.0 - - - - - - -
27/12:11am 23.8 N 17 27 1004.9 - 0.0 - - - - - - -
27/12:00am 23.8 N 18 24 1005.2 - 0.0 - - - - - - -
 
Date/Time
CDT
Temp
°C
Wind Pressure Rain since
9am
mm
Weather Cloud Vis
km
Sea
Height
m
Swell
Dir  Spd
kts
Gust
kts
hPa Trend Height
m
Period
s
Dir
26/11:30pm 23.1 N 15 21 1005.4 - 0.0 - - - - - - -
26/11:00pm 22.9 N 16 22 1005.8 - 0.0 - - - - - - -
26/10:30pm 22.8 N 16 21 1006.9 - 0.0 - - - - - - -
26/10:00pm 22.2 N 13 19 1007.6 - 0.0 - - - - - - -
26/09:30pm 20.7 NNE 9 13 1008.0 - 0.0 - - - - - - -
26/09:00pm 19.1 NNE 9 12 1008.4 - 0.0 - - - - - - -
26/08:30pm 18.4 NNE 12 15 1008.3 - 0.0 - - - - - - -
26/08:00pm 18.3 NE 12 16 1008.2 - 0.0 - - - - - - -
26/07:30pm 18.3 ENE 12 15 1008.5 - 0.0 - - - - - - -
26/07:00pm 18.3 ENE 11 15 1008.9 - 0.0 - - - - - - -
26/06:30pm 18.3 ENE 9 12 1009.2 - 0.0 - - - - - - -
26/06:00pm 19.0 ENE 11 13 1009.4 - 0.0 - - - - - - -
26/05:30pm 19.0 ENE 10 15 1009.6 - 0.0 - - - - - - -
26/05:00pm 19.0 ENE 13 16 1009.7 - 0.0 - - - - - - -
26/04:30pm 19.7 ENE 11 15 1010.0 - 0.0 - - - - - - -
26/04:00pm 20.4 ENE 10 14 1010.3 - 0.0 - - - - - - -
26/03:30pm 20.6 ENE 10 13 1011.1 - 0.0 - - - - - - -
26/03:00pm 20.4 E 10 13 1011.6 - 0.0 - - - - - - -
26/02:30pm 21.0 E 9 11 1012.2 - 0.0 - - - - - - -
26/02:00pm 20.4 E 10 13 1012.4 - 0.0 - - - - - - -
26/01:30pm 20.6 E 9 12 1012.8 - 0.0 - - - - - - -
26/01:00pm 19.9 E 10 13 1013.3 - 0.0 - - - - - - -
26/12:30pm 20.1 E 10 13 1013.9 - 0.0 - - - - - - -
26/12:00pm 19.2 E 9 13 1014.0 - 0.0 - - - - - - -
26/11:30am 19.1 E 10 13 1014.2 - 0.0 - - - - - - -
26/11:00am 19.1 E 8 11 1014.8 - 0.0 - - - - - - -
26/10:30am 18.1 E 9 10 1014.7 - 0.0 - - - - - - -
26/10:00am 18.2 ESE 5 7 1015.0 - 0.0 - - - - - - -
26/09:30am 17.9 ESE 4 7 1015.3 - 0.0 - - - - - - -
26/09:00am 17.5 SE 3 4 1015.4 - 0.0 - - - - - - -
26/08:30am 17.4 SSE 5 7 1015.3 - 0.0 - - - - - - -
26/08:00am 17.2 SE 4 6 1015.0 - 0.0 - - - - - - -
26/07:30am 16.9 ESE 5 9 1014.8 - 0.0 - - - - - - -
26/07:00am 16.8 ESE 3 5 1014.4 - 0.0 - - - - - - -
26/06:30am 16.8 ESE 2 6 1014.0 - 0.0 - - - - - - -
26/06:00am 16.7 CALM 0 0 1014.1 - 0.0 - - - - - - -
26/05:30am 16.8 S 2 5 1013.9 - 0.0 - - - - - - -
26/05:00am 16.7 CALM 0 0 1013.8 - 0.0 - - - - - - -
26/04:30am 16.7 CALM 0 0 1013.8 - 0.0 - - - - - - -
26/04:00am 16.7 CALM 0 0 1013.8 - 0.0 - - - - - - -
26/03:30am 16.8 CALM 0 0 1014.0 - 0.0 - - - - - - -
26/03:00am 16.9 CALM 0 0 1014.3 - 0.0 - - - - - - -
26/02:30am 17.0 S 3 5 1014.1 - 0.0 - - - - - - -
26/02:00am 17.0 S 3 5 1014.6 - 0.0 - - - - - - -
26/01:30am 17.1 CALM 0 0 1014.7 - 0.0 - - - - - - -
26/01:00am 17.2 SW 2 5 1014.7 - 0.0 - - - - - - -
26/12:30am 17.2 SW 3 4 1014.9 - 0.0 - - - - - - -
26/12:00am 17.3 S 7 10 1014.7 - 0.0 - - - - - - -
 
Date/Time
CDT
Temp
°C
Wind Pressure Rain since
9am
mm
Weather Cloud Vis
km
Sea
Height
m
Swell
Dir  Spd
kts
Gust
kts
hPa Trend Height
m
Period
s
Dir
25/11:30pm 17.4 N 4 6 1015.2 - 0.0 - - - - - - -
25/11:00pm 17.6 S 8 10 1015.0 - 0.0 - - - - - - -
25/10:30pm 17.7 ESE 4 7 1015.2 - 0.0 - - - - - - -

Other Formats:

Comma delimited format used in spreadsheet applications
http://www.bom.gov.au/fwo/IDS60701/IDS60701.94826.axf

JavaScript Object Notation format (JSON) in row-major order
http://www.bom.gov.au/fwo/IDS60701/IDS60701.94826.json